Rogue Valley International Medford Airport
KMFR : now visible

Airfield :











YOU CAN JOIN US ON...

 
LOGIN :

Register | Disclaimer

   EN    FR    IT 

 









Legend :    VFR   Marginal VFR   IFR   Intensive IFR   Very Intensive IFR
Visi :
Ceiling :
>= 8 km
>= 3000ft
5 to 8 km
1000 to 3000 ft
1500m to 5 km
500 to 1000 ft
800 to 1500m
200 to 500 ft
< 800m
< 200 ft
Symbols :   Thunderstorms  Fog  Heavy snow  Heavy precipitations  Wind > 20 kt






- Airport Elevation : 1335 ft
- IATA code : MFR


KMFR - Rogue Valley International Medford

CURRENT METAR :
  • 061453Z 17010KT 10SM FEW065 09/03 A2987 RMK AO2 SLP119 T00890028 56010

EXPIRED METARs :
  • 061353Z 27004KT 10SM CLR 07/03 A2988 RMK AO2 SLP122 T00720028
  • 061253Z AUTO 35005KT 10SM CLR 04/02 A2988 RMK AO2 SLP122 T00440022

TAF KMFR
Valid from the 06 at 12:00 until the 07 at 12:00 UTC


061158Z 0612/0712 VRB04KT P6SM BKN160 OVC250 WS020/15035KT
FM061800 14015G25KT P6SM FEW050 SCT100 OVC200
FM070000 15018G28KT P6SM -RA SCT050 BKN080 OVC100
FM070600 15010KT 6SM -RA BR BKN035 OVC050



MET'MAP, your aeronautical weather chart ! - Copyright ORBIFLY December 2007 - Disclaimer

ORBIFLY MET'MAP TEAM :

Programming & Development : Alexandra Zaïnal
Concept & original design : Baudouin d'Aumeries
Assistance for programming : Marc-Olivier Méhu
Technical & hardware support : Manuel Goepfert

Contact : metmap@orbifly.com




SOURCES & CREDITS :

   NOAA       Earth
Advisory